Time;durP1;ratioP1;P1;durP2;ratioP2;P2;SDS_P1;SDS_P2;PMS_P1;PMS_P2;Temp;Humidity;BMP_temperature;BMP_pressure;BME280_temperature;BME280_humidity;BME280_pressure;Samples;Min_cycle;Max_cycle;Signal;HPM_P1;HPM_P2
2023/03/31 00:00:45;;;;;;;11.30;8.70;;;;;;;10.34;84.56;99292.39;102591;278;97557;-58
2023/03/31 00:03:22;;;;;;;12.70;9.20;;;;;;;10.34;84.58;99290.52;102546;278;120833;-54
2023/03/31 00:06:05;;;;;;;13.20;9.90;;;;;;;10.34;84.48;99291.08;102540;278;106272;-56
2023/03/31 00:08:50;;;;;;;14.60;9.70;;;;;;;10.30;84.43;99285.91;102549;278;113037;-55
2023/03/31 00:11:29;;;;;;;13.00;9.20;;;;;;;10.26;84.37;99282.14;102554;278;96511;-54
2023/03/31 00:14:14;;;;;;;13.00;9.50;;;;;;;10.25;84.45;99285.20;102497;278;97341;-54
2023/03/31 00:16:53;;;;;;;13.10;9.40;;;;;;;10.29;84.49;99286.36;102512;278;120314;-60
2023/03/31 00:19:32;;;;;;;12.60;9.40;;;;;;;10.30;84.50;99282.83;102547;278;106618;-60
2023/03/31 00:22:13;;;;;;;12.70;8.60;;;;;;;10.34;84.59;99285.95;102543;278;115166;-55
2023/03/31 00:24:59;;;;;;;11.70;9.10;;;;;;;10.36;84.59;99285.29;102544;278;93548;-55
2023/03/31 00:27:42;;;;;;;13.20;9.40;;;;;;;10.39;84.69;99283.94;102544;278;96566;-55
2023/03/31 00:30:18;;;;;;;11.70;8.30;;;;;;;10.44;84.64;99285.94;102556;278;120499;-54
2023/03/31 00:32:53;;;;;;;14.90;8.70;;;;;;;10.43;84.60;99287.54;102560;278;104999;-55
2023/03/31 00:35:29;;;;;;;11.20;8.30;;;;;;;10.46;84.47;99287.98;102554;278;114662;-55
2023/03/31 00:38:07;;;;;;;10.90;8.50;;;;;;;10.49;84.47;99294.64;102553;277;96630;-60
2023/03/31 00:40:55;;;;;;;12.90;9.90;;;;;;;10.47;84.52;99291.63;102553;278;98515;-59
2023/03/31 00:43:34;;;;;;;12.50;8.90;;;;;;;10.49;84.43;99289.25;102581;278;119971;-60
2023/03/31 00:46:20;;;;;;;11.90;8.80;;;;;;;10.45;84.36;99294.84;102569;277;105531;-60
2023/03/31 00:48:58;;;;;;;10.90;8.60;;;;;;;10.45;84.32;99291.52;102525;278;114613;-59
2023/03/31 00:51:39;;;;;;;11.40;8.90;;;;;;;10.44;84.27;99291.55;102567;278;96817;-59
2023/03/31 00:54:18;;;;;;;12.90;8.60;;;;;;;10.44;84.29;99287.02;102583;278;97599;-57
2023/03/31 00:57:02;;;;;;;10.70;9.00;;;;;;;10.42;84.33;99278.89;102586;277;120901;-58
2023/03/31 00:59:44;;;;;;;12.60;9.40;;;;;;;10.42;84.22;99280.27;102593;278;106251;-56
2023/03/31 01:02:19;;;;;;;14.00;9.80;;;;;;;10.42;84.20;99278.52;102544;277;114917;-59
2023/03/31 01:04:58;;;;;;;14.20;9.10;;;;;;;10.43;84.20;99280.84;102470;278;96117;-62
2023/03/31 01:07:40;;;;;;;12.70;8.10;;;;;;;10.40;84.15;99282.45;102597;277;98308;-59
2023/03/31 01:10:15;;;;;;;13.10;8.60;;;;;;;10.40;84.11;99281.13;102568;277;120295;-58
2023/03/31 01:12:54;;;;;;;12.10;7.80;;;;;;;10.41;84.16;99278.11;102575;277;106255;-58
2023/03/31 01:15:36;;;;;;;12.30;8.10;;;;;;;10.44;84.00;99275.20;102543;277;114080;-58
2023/03/31 01:18:19;;;;;;;11.00;7.80;;;;;;;10.41;84.20;99272.59;102596;277;93457;-58
2023/03/31 01:21:29;;;;;;;10.50;7.80;;;;;;;10.39;84.09;99273.27;102599;277;96786;-54
2023/03/31 01:25:00;;;;;;;11.60;7.60;;;;;;;10.37;84.02;99275.61;102539;278;120555;-53
2023/03/31 01:27:53;;;;;;;10.30;8.10;;;;;;;10.35;84.14;99276.98;102454;278;106334;-58
2023/03/31 01:31:12;;;;;;;11.40;7.90;;;;;;;10.33;84.12;99271.23;102528;277;112315;-59
2023/03/31 01:34:36;;;;;;;8.70;7.80;;;;;;;10.31;84.02;99272.19;102502;277;96834;-55
2023/03/31 01:38:07;;;;;;;10.10;7.90;;;;;;;10.35;83.99;99269.10;102538;277;97856;-59
2023/03/31 01:41:25;;;;;;;13.40;8.20;;;;;;;10.36;84.16;99270.17;102140;277;121660;-60
2023/03/31 01:44:19;;;;;;;13.00;8.80;;;;;;;10.37;83.96;99273.15;102434;279;105187;-55
2023/03/31 01:47:01;;;;;;;8.60;7.40;;;;;;;10.35;83.83;99269.54;102419;279;114989;-55
2023/03/31 01:49:45;;;;;;;11.30;8.30;;;;;;;10.34;83.87;99268.56;102386;279;96708;-54
2023/03/31 01:52:29;;;;;;;10.20;7.70;;;;;;;10.36;83.91;99275.08;102413;279;98297;-59
2023/03/31 01:55:13;;;;;;;9.20;8.10;;;;;;;10.36;84.07;99276.95;102396;279;121907;-58
2023/03/31 01:57:56;;;;;;;9.90;7.90;;;;;;;10.39;84.04;99275.44;102399;279;105312;-54
2023/03/31 02:00:39;;;;;;;13.10;9.10;;;;;;;10.34;84.05;99273.75;102339;279;114026;-54
2023/03/31 02:03:22;;;;;;;9.40;8.00;;;;;;;10.31;83.89;99278.04;102369;279;96026;-55
2023/03/31 02:06:14;;;;;;;9.80;8.70;;;;;;;10.28;83.91;99273.87;102409;279;97240;-55
2023/03/31 02:08:52;;;;;;;11.20;8.70;;;;;;;10.26;83.97;99272.95;102376;279;120615;-54
2023/03/31 02:11:31;;;;;;;10.30;7.70;;;;;;;10.26;83.89;99272.59;102417;279;105448;-59
2023/03/31 02:14:17;;;;;;;9.60;7.90;;;;;;;10.26;83.84;99278.86;102361;279;114861;-58
2023/03/31 02:17:02;;;;;;;9.00;7.30;;;;;;;10.22;83.92;99278.29;102396;279;93868;-59
2023/03/31 02:19:46;;;;;;;9.20;7.90;;;;;;;10.23;83.86;99278.49;102389;279;98394;-59
2023/03/31 02:22:26;;;;;;;9.70;8.10;;;;;;;10.23;84.02;99280.73;102329;279;120573;-55
2023/03/31 02:25:06;;;;;;;9.20;8.20;;;;;;;10.22;83.92;99280.91;102361;279;106480;-55
2023/03/31 02:27:43;;;;;;;9.40;7.60;;;;;;;10.20;83.91;99285.23;102381;279;114708;-55
2023/03/31 02:30:21;;;;;;;9.80;7.70;;;;;;;10.19;83.91;99283.07;102378;279;96751;-55
2023/03/31 02:32:58;;;;;;;11.60;8.20;;;;;;;10.20;83.81;99281.88;102342;279;98401;-58
2023/03/31 02:35:39;;;;;;;11.00;7.50;;;;;;;10.22;83.87;99279.90;102379;279;120282;-59
2023/03/31 02:38:23;;;;;;;9.50;7.90;;;;;;;10.22;83.97;99279.38;102433;279;104679;-55
2023/03/31 02:41:08;;;;;;;9.10;8.20;;;;;;;10.21;83.91;99277.01;102360;279;114522;-58
2023/03/31 02:43:50;;;;;;;9.70;8.20;;;;;;;10.15;83.76;99277.36;102562;278;96842;-59
2023/03/31 02:46:27;;;;;;;10.80;8.40;;;;;;;9.96;83.79;99274.49;102578;277;97177;-58
2023/03/31 02:49:10;;;;;;;9.70;7.20;;;;;;;9.89;83.73;99272.23;102607;278;119462;-58
2023/03/31 02:52:06;;;;;;;10.00;7.70;;;;;;;9.86;83.69;99278.10;102597;278;105040;-54
2023/03/31 02:55:26;;;;;;;9.90;8.60;;;;;;;9.86;83.86;99281.11;102073;277;589683;-54
2023/03/31 02:58:33;;;;;;;9.60;7.60;;;;;;;9.90;84.08;99280.83;102312;278;94878;-58
2023/03/31 03:01:28;;;;;;;9.50;7.90;;;;;;;9.92;84.11;99283.73;102602;277;99053;-58
2023/03/31 03:04:24;;;;;;;9.10;8.00;;;;;;;9.94;84.08;99282.98;102544;277;119883;-59
2023/03/31 03:07:08;;;;;;;10.00;7.70;;;;;;;9.98;83.99;99280.91;102547;277;106429;-53
2023/03/31 03:10:00;;;;;;;9.40;7.90;;;;;;;10.01;84.03;99282.33;102569;277;113636;-54
2023/03/31 03:12:55;;;;;;;11.00;7.90;;;;;;;10.03;84.00;99289.87;102527;277;94437;-55
2023/03/31 03:15:43;;;;;;;9.70;8.00;;;;;;;10.01;84.04;99289.42;102595;277;97958;-55
2023/03/31 03:18:26;;;;;;;10.10;8.30;;;;;;;9.99;84.05;99290.35;102553;277;121535;-59
2023/03/31 03:21:04;;;;;;;9.00;8.00;;;;;;;9.97;84.04;99294.70;102555;277;105095;-57
2023/03/31 03:23:42;;;;;;;10.90;7.90;;;;;;;9.96;84.05;99295.98;102502;277;112699;-58
2023/03/31 03:26:29;;;;;;;10.00;7.70;;;;;;;9.91;84.06;99297.75;102540;277;95775;-54
2023/03/31 03:29:13;;;;;;;8.30;7.40;;;;;;;9.90;84.13;99298.59;102515;277;98462;-54
2023/03/31 03:31:56;;;;;;;8.80;7.00;;;;;;;9.89;84.03;99296.69;102568;277;120438;-54
2023/03/31 03:34:35;;;;;;;8.30;7.40;;;;;;;9.91;84.08;99296.36;102525;277;105759;-54
2023/03/31 03:37:10;;;;;;;9.30;7.60;;;;;;;9.92;84.04;99306.37;102545;277;114218;-54
2023/03/31 03:39:44;;;;;;;8.80;7.80;;;;;;;9.90;84.08;99305.85;102554;277;94354;-51
2023/03/31 03:42:21;;;;;;;9.60;8.70;;;;;;;9.82;83.97;99300.64;102520;277;96887;-58
2023/03/31 03:45:01;;;;;;;9.20;8.00;;;;;;;9.78;83.99;99303.02;102572;277;120768;-58
2023/03/31 03:47:40;;;;;;;8.70;7.40;;;;;;;9.73;83.93;99307.14;102553;277;104694;-54
2023/03/31 03:50:16;;;;;;;8.60;7.40;;;;;;;9.66;83.92;99311.41;102505;277;114559;-54
2023/03/31 03:52:55;;;;;;;10.50;9.10;;;;;;;9.65;84.08;99314.27;102516;266;93978;-55
2023/03/31 03:55:34;;;;;;;11.40;8.20;;;;;;;9.56;84.05;99314.71;102536;277;98136;-54
2023/03/31 03:58:12;;;;;;;8.60;7.80;;;;;;;9.47;83.93;99313.94;102525;277;120098;-55
2023/03/31 04:01:03;;;;;;;10.40;8.70;;;;;;;9.38;84.10;99310.25;102523;277;106215;-55
2023/03/31 04:03:42;;;;;;;9.90;8.90;;;;;;;9.25;84.20;99310.83;102533;277;114833;-60
2023/03/31 04:06:20;;;;;;;10.50;8.60;;;;;;;9.16;84.07;99311.16;102511;277;97197;-55
2023/03/31 04:08:54;;;;;;;9.40;8.20;;;;;;;9.09;84.03;99313.36;102551;277;96639;-55
2023/03/31 04:11:31;;;;;;;;;;;;;;;9.08;84.22;99313.55;102512;277;120356;-54
2023/03/31 04:14:16;;;;;;;10.60;9.10;;;;;;;9.05;84.41;99316.34;102516;277;105766;-54
2023/03/31 04:17:02;;;;;;;10.20;9.20;;;;;;;8.93;84.19;99315.77;102540;277;114708;-58
2023/03/31 04:19:42;;;;;;;10.40;9.30;;;;;;;8.80;84.32;99310.23;102483;277;96801;-58
2023/03/31 04:22:19;;;;;;;11.80;9.10;;;;;;;8.73;84.35;99313.59;102534;277;97574;-55
2023/03/31 04:24:58;;;;;;;13.70;10.00;;;;;;;8.64;84.20;99313.86;102481;277;122173;-54
2023/03/31 04:27:45;;;;;;;12.70;9.80;;;;;;;8.59;84.40;99309.53;102555;277;105294;-59
2023/03/31 04:30:23;;;;;;;11.60;9.70;;;;;;;8.63;84.64;99308.48;102501;277;113915;-57
2023/03/31 04:33:07;;;;;;;10.50;9.30;;;;;;;8.59;84.43;99307.42;102504;277;94874;-55
2023/03/31 04:35:48;;;;;;;12.20;10.00;;;;;;;8.53;84.40;99312.54;102545;277;97009;-55
2023/03/31 04:38:32;;;;;;;13.70;11.10;;;;;;;8.50;84.58;99315.19;102543;277;120233;-54
2023/03/31 04:41:10;;;;;;;12.60;11.30;;;;;;;8.57;85.01;99307.45;102552;277;105216;-57
2023/03/31 04:43:54;;;;;;;12.60;10.50;;;;;;;8.58;84.99;99304.89;102471;277;113635;-58
2023/03/31 04:46:33;;;;;;;13.60;10.90;;;;;;;8.59;85.06;99306.06;102491;277;95253;-58
2023/03/31 04:49:11;;;;;;;12.10;10.30;;;;;;;8.66;85.04;99301.02;102515;277;98923;-54
2023/03/31 04:51:53;;;;;;;11.80;10.60;;;;;;;8.81;85.37;99302.79;102548;277;121374;-58
2023/03/31 04:54:30;;;;;;;15.40;10.90;;;;;;;8.96;85.39;99298.50;102528;277;103392;-57
2023/03/31 04:57:08;;;;;;;14.60;11.40;;;;;;;9.10;85.29;99300.88;102549;277;114430;-58
2023/03/31 04:59:47;;;;;;;17.80;11.90;;;;;;;9.21;85.26;99298.52;102519;277;96046;-57
2023/03/31 05:02:28;;;;;;;13.70;11.60;;;;;;;9.27;85.21;99296.73;102519;277;98299;-59
2023/03/31 05:05:06;;;;;;;14.00;11.30;;;;;;;9.33;85.26;99290.84;102454;277;119549;-59
2023/03/31 05:07:42;;;;;;;14.60;11.40;;;;;;;9.44;85.09;99292.71;102502;277;105486;-54
2023/03/31 05:10:24;;;;;;;13.30;10.60;;;;;;;9.57;85.14;99287.00;102488;277;115217;-54
2023/03/31 05:13:02;;;;;;;14.30;11.50;;;;;;;9.67;85.11;99289.23;102499;277;94212;-55
2023/03/31 05:15:43;;;;;;;12.80;11.40;;;;;;;9.72;85.21;99289.97;102576;277;96204;-54
2023/03/31 05:18:22;;;;;;;17.50;12.40;;;;;;;9.83;85.31;99287.33;102537;277;119702;-59
2023/03/31 05:21:08;;;;;;;16.00;12.30;;;;;;;9.97;85.05;99288.23;102545;277;106016;-57
2023/03/31 05:23:49;;;;;;;13.70;11.80;;;;;;;10.07;85.02;99282.64;102493;277;114362;-58
2023/03/31 05:26:29;;;;;;;15.40;11.30;;;;;;;10.13;84.90;99280.86;102532;277;96073;-55
2023/03/31 05:29:03;;;;;;;13.70;11.20;;;;;;;10.18;84.74;99277.85;102517;277;96516;-54
2023/03/31 05:31:40;;;;;;;14.50;11.60;;;;;;;10.19;84.61;99275.80;102567;277;119206;-53
2023/03/31 05:34:16;;;;;;;12.70;11.40;;;;;;;10.25;84.52;99276.82;102546;277;104353;-54
2023/03/31 05:36:57;;;;;;;15.90;13.20;;;;;;;10.26;84.56;99275.08;102558;277;114539;-54
2023/03/31 05:39:40;;;;;;;14.60;11.70;;;;;;;10.32;84.60;99272.98;102489;277;95409;-54
2023/03/31 05:42:21;;;;;;;16.40;11.60;;;;;;;10.35;84.50;99273.04;102488;277;97528;-54
2023/03/31 05:44:59;;;;;;;13.50;11.20;;;;;;;10.40;84.44;99270.40;102507;277;120143;-55
2023/03/31 05:47:35;;;;;;;15.60;11.50;;;;;;;10.47;84.40;99271.56;102529;277;104651;-58
2023/03/31 05:50:11;;;;;;;14.50;12.70;;;;;;;10.55;84.41;99272.09;102530;277;113670;-58
2023/03/31 05:52:56;;;;;;;14.30;11.50;;;;;;;10.56;84.34;99274.67;102536;277;95325;-59
2023/03/31 05:55:38;;;;;;;13.90;12.30;;;;;;;10.55;84.14;99274.30;102536;277;96286;-58
2023/03/31 05:58:12;;;;;;;14.80;12.00;;;;;;;10.57;84.13;99271.02;102488;277;120781;-54
2023/03/31 06:01:05;;;;;;;14.80;12.10;;;;;;;10.60;84.12;99277.84;102565;277;105434;-55
2023/03/31 06:03:45;;;;;;;12.90;11.40;;;;;;;10.59;83.96;99275.19;102574;277;114218;-58
2023/03/31 06:06:25;;;;;;;14.40;11.00;;;;;;;10.57;84.12;99270.60;102509;277;97656;-54
2023/03/31 06:09:00;;;;;;;13.60;10.90;;;;;;;10.62;84.11;99273.26;102531;277;97863;-55
2023/03/31 06:11:34;;;;;;;14.30;11.90;;;;;;;10.65;84.23;99271.58;102531;277;119530;-58
2023/03/31 06:14:14;;;;;;;13.80;12.20;;;;;;;10.76;84.20;99261.41;102541;277;104240;-58
2023/03/31 06:16:55;;;;;;;15.90;12.10;;;;;;;10.89;83.99;99263.86;102540;277;112970;-60
2023/03/31 06:19:30;;;;;;;15.80;12.30;;;;;;;11.11;84.12;99262.66;102497;277;95268;-59
2023/03/31 06:22:06;;;;;;;13.20;11.20;;;;;;;11.39;83.82;99259.44;102517;277;95715;-58
2023/03/31 06:24:46;;;;;;;16.10;12.70;;;;;;;11.70;83.59;99259.24;102492;277;119591;-58
2023/03/31 06:27:20;;;;;;;14.40;12.80;;;;;;;11.86;83.11;99263.04;102557;277;104899;-55
2023/03/31 06:29:57;;;;;;;14.00;12.20;;;;;;;11.81;82.68;99264.42;102496;277;113728;-54
2023/03/31 06:32:36;;;;;;;14.70;13.10;;;;;;;11.68;82.50;99263.71;102544;277;93014;-59
2023/03/31 06:35:12;;;;;;;16.40;12.10;;;;;;;11.60;82.47;99265.11;102553;277;98388;-59
2023/03/31 06:37:48;;;;;;;13.70;12.30;;;;;;;11.49;82.37;99264.63;102566;277;119312;-58
2023/03/31 06:40:29;;;;;;;14.50;12.20;;;;;;;11.49;82.47;99254.45;102506;277;105968;-58
2023/03/31 06:43:07;;;;;;;14.10;11.90;;;;;;;11.55;82.45;99252.22;102578;277;114621;-59
2023/03/31 06:45:48;;;;;;;16.10;12.60;;;;;;;11.56;82.33;99250.41;102449;277;94273;-58
2023/03/31 06:48:25;;;;;;;15.70;14.00;;;;;;;11.59;82.30;99255.92;102539;277;96568;-54
2023/03/31 06:51:02;;;;;;;15.60;13.50;;;;;;;11.66;82.08;99252.78;102506;277;121124;-58
2023/03/31 06:53:44;;;;;;;14.20;12.30;;;;;;;11.82;82.32;99252.80;102535;277;106207;-57
2023/03/31 06:56:26;;;;;;;14.90;12.40;;;;;;;12.10;82.30;99245.29;102542;277;113022;-55
2023/03/31 06:59:08;;;;;;;14.70;12.80;;;;;;;12.44;82.06;99246.69;102545;277;94943;-54
2023/03/31 07:01:49;;;;;;;15.00;12.30;;;;;;;12.61;81.33;99246.91;102544;277;96670;-58
2023/03/31 07:04:37;;;;;;;15.60;12.80;;;;;;;12.71;81.33;99249.52;102552;277;120526;-59
2023/03/31 07:07:17;;;;;;;16.20;13.60;;;;;;;12.72;80.75;99251.12;102545;277;105488;-54
2023/03/31 07:10:00;;;;;;;14.80;13.30;;;;;;;12.63;80.32;99251.59;102574;277;114656;-54
2023/03/31 07:12:45;;;;;;;15.20;13.60;;;;;;;12.70;80.34;99249.89;102569;277;96262;-55
2023/03/31 07:15:25;;;;;;;15.40;13.80;;;;;;;12.80;80.11;99257.83;102565;277;97129;-56
2023/03/31 07:18:01;;;;;;;14.70;13.20;;;;;;;12.83;80.26;99257.50;102582;277;121287;-59
2023/03/31 07:20:37;;;;;;;16.80;14.30;;;;;;;13.09;80.12;99257.95;102588;277;106529;-59
2023/03/31 07:23:20;;;;;;;15.80;13.10;;;;;;;13.53;79.63;99260.30;102552;277;114379;-55
2023/03/31 07:26:01;;;;;;;18.50;14.10;;;;;;;13.59;78.79;99254.30;102520;277;94733;-59
2023/03/31 07:28:35;;;;;;;15.60;14.10;;;;;;;13.41;78.40;99254.84;102565;277;97732;-55
2023/03/31 07:31:14;;;;;;;;;;;;;;;13.43;78.43;99253.05;102609;277;120516;-55
2023/03/31 07:33:56;;;;;;;15.60;14.00;;;;;;;13.45;78.31;99246.95;102533;277;105766;-54
2023/03/31 07:36:36;;;;;;;17.20;14.90;;;;;;;13.49;78.02;99250.38;102463;277;115128;-54
2023/03/31 07:39:20;;;;;;;19.80;15.50;;;;;;;13.50;77.94;99245.30;102494;277;96327;-54
2023/03/31 07:42:01;;;;;;;17.00;15.30;;;;;;;13.54;77.43;99246.70;102516;277;98024;-59
2023/03/31 07:44:41;;;;;;;16.00;14.10;;;;;;;13.61;77.28;99248.91;102551;277;120114;-59
2023/03/31 07:47:23;;;;;;;16.30;14.70;;;;;;;13.66;77.45;99240.43;102510;277;105903;-55
2023/03/31 07:50:07;;;;;;;15.40;13.90;;;;;;;13.87;76.97;99238.85;102524;277;114995;-55
2023/03/31 07:52:50;;;;;;;15.70;13.50;;;;;;;14.02;76.16;99234.77;102580;277;94043;-59
2023/03/31 07:55:27;;;;;;;12.70;11.30;;;;;;;14.33;76.09;99232.16;102568;277;97521;-59
2023/03/31 07:58:05;;;;;;;14.50;13.00;;;;;;;14.60;75.57;99233.77;102581;277;120308;-55
2023/03/31 08:00:43;;;;;;;12.60;11.40;;;;;;;14.63;75.12;99229.17;102609;277;104791;-54
2023/03/31 08:03:25;;;;;;;14.30;12.80;;;;;;;14.64;74.66;99224.95;102505;277;112765;-59
2023/03/31 08:06:05;;;;;;;15.30;12.30;;;;;;;14.68;74.82;99226.31;102517;277;94205;-59
2023/03/31 08:08:41;;;;;;;12.40;11.20;;;;;;;14.73;73.11;99224.99;102563;277;97977;-61
2023/03/31 08:11:17;;;;;;;12.60;11.40;;;;;;;14.74;73.23;99217.61;102588;277;119762;-55
2023/03/31 08:14:08;;;;;;;12.50;10.80;;;;;;;14.76;72.87;99216.45;102516;277;104705;-55
2023/03/31 08:16:52;;;;;;;11.70;10.50;;;;;;;14.73;72.82;99216.04;102511;277;114815;-54
2023/03/31 08:19:32;;;;;;;11.70;10.50;;;;;;;14.56;72.55;99215.02;102527;277;94047;-55
2023/03/31 08:22:10;;;;;;;15.30;11.00;;;;;;;14.47;72.49;99217.77;102501;277;97560;-60
2023/03/31 08:24:44;;;;;;;12.10;10.90;;;;;;;14.33;72.75;99216.18;102537;277;119830;-60
2023/03/31 08:27:19;;;;;;;12.80;11.30;;;;;;;14.09;72.67;99213.39;102563;277;103414;-61
2023/03/31 08:30:01;;;;;;;13.70;12.30;;;;;;;13.76;73.05;99207.23;102578;277;113661;-61
2023/03/31 08:32:46;;;;;;;;;;;;;;;13.50;73.53;99205.08;102534;277;96460;-60
2023/03/31 08:35:33;;;;;;;13.10;11.50;;;;;;;13.29;74.14;99198.46;102516;277;97080;-59
2023/03/31 08:38:22;;;;;;;13.20;11.30;;;;;;;13.28;74.91;99189.05;102552;277;121352;-56
2023/03/31 08:41:08;;;;;;;13.70;12.20;;;;;;;14.07;75.92;99187.98;102519;277;105811;-56
2023/03/31 08:43:55;;;;;;;12.40;11.00;;;;;;;14.43;75.19;99179.27;102453;277;114363;-56
2023/03/31 08:46:39;;;;;;;12.80;11.50;;;;;;;14.56;75.02;99178.15;102530;277;93901;-59
2023/03/31 08:49:24;;;;;;;12.50;11.30;;;;;;;14.58;75.08;99176.45;102548;277;98360;-59
2023/03/31 08:52:02;;;;;;;14.10;12.50;;;;;;;14.85;75.07;99177.19;102503;277;120915;-56
2023/03/31 08:54:42;;;;;;;12.70;11.30;;;;;;;15.48;75.56;99168.32;102511;277;105392;-56
2023/03/31 08:57:27;;;;;;;14.60;11.80;;;;;;;16.43;74.93;99162.46;102514;277;113422;-56
2023/03/31 09:00:11;;;;;;;12.30;10.60;;;;;;;16.93;72.84;99160.02;102482;277;95124;-55
2023/03/31 09:02:58;;;;;;;11.70;10.50;;;;;;;17.08;72.13;99158.44;102555;278;96629;-55
2023/03/31 09:05:57;;;;;;;13.90;10.30;;;;;;;16.90;69.68;99156.13;102531;277;119562;-55
2023/03/31 09:08:44;;;;;;;11.70;9.50;;;;;;;16.65;69.93;99155.17;102522;277;106335;-61
2023/03/31 09:11:33;;;;;;;12.10;10.00;;;;;;;16.30;68.65;99154.64;102491;277;113525;-56
2023/03/31 09:14:42;;;;;;;10.10;8.70;;;;;;;16.11;69.30;99156.06;102526;277;95402;-55
2023/03/31 09:17:27;;;;;;;12.00;9.60;;;;;;;16.18;69.79;99155.05;102502;277;97947;-55
2023/03/31 09:20:08;;;;;;;11.60;9.40;;;;;;;16.20;69.06;99153.77;102519;277;120012;-54
2023/03/31 09:22:49;;;;;;;14.00;10.20;;;;;;;15.97;68.85;99151.61;102542;277;104822;-59
2023/03/31 09:25:28;;;;;;;11.60;9.70;;;;;;;15.65;68.82;99149.89;102483;277;114595;-60
2023/03/31 09:28:12;;;;;;;12.00;9.60;;;;;;;15.46;68.92;99148.77;102544;277;94125;-55
2023/03/31 09:30:52;;;;;;;11.60;10.10;;;;;;;15.42;69.28;99148.20;102514;277;97415;-54
2023/03/31 09:33:31;;;;;;;10.30;8.30;;;;;;;15.46;69.02;99147.23;102548;277;119234;-55
2023/03/31 09:36:14;;;;;;;10.00;9.00;;;;;;;15.54;68.66;99145.94;102565;277;106191;-60
2023/03/31 09:38:51;;;;;;;8.80;7.90;;;;;;;15.64;68.76;99139.70;102507;277;115758;-60
2023/03/31 09:41:30;;;;;;;9.80;8.20;;;;;;;15.97;68.67;99144.90;102550;277;94163;-59
2023/03/31 09:44:26;;;;;;;9.80;7.20;;;;;;;16.38;68.13;99146.23;102550;277;96970;-59
2023/03/31 09:47:07;;;;;;;9.70;6.90;;;;;;;16.47;66.79;99139.40;102550;278;120682;-55
2023/03/31 09:49:47;;;;;;;9.90;7.30;;;;;;;16.54;67.42;99135.27;102596;277;106093;-53
2023/03/31 09:52:31;;;;;;;10.30;6.60;;;;;;;16.61;67.13;99136.98;102532;277;113432;-60
2023/03/31 09:55:19;;;;;;;8.30;6.50;;;;;;;16.68;66.75;99135.42;102546;277;92314;-61
2023/03/31 09:57:58;;;;;;;8.20;5.50;;;;;;;16.70;66.61;99135.16;102563;278;97826;-55
2023/03/31 10:00:42;;;;;;;8.00;5.50;;;;;;;16.71;66.48;99131.19;102525;277;121355;-55
2023/03/31 10:03:18;;;;;;;6.80;4.90;;;;;;;16.74;66.14;99126.04;102573;277;106154;-59
2023/03/31 10:05:57;;;;;;;6.40;5.00;;;;;;;16.87;65.85;99124.45;102518;277;112517;-58
2023/03/31 10:08:45;;;;;;;10.10;4.90;;;;;;;17.03;65.61;99118.67;102524;277;94228;-60
2023/03/31 10:11:26;;;;;;;8.90;5.20;;;;;;;17.19;65.78;99114.96;102539;277;97536;-55
2023/03/31 10:14:07;;;;;;;7.20;5.10;;;;;;;17.37;65.08;99112.77;102538;277;119361;-55
2023/03/31 10:16:51;;;;;;;6.80;4.60;;;;;;;17.54;65.34;99106.27;102539;277;104372;-55
2023/03/31 10:19:35;;;;;;;10.30;5.10;;;;;;;17.91;65.62;99098.08;102550;277;114845;-55
2023/03/31 10:22:30;;;;;;;7.50;5.00;;;;;;;18.15;64.58;99098.84;102549;277;94674;-59
2023/03/31 10:25:21;;;;;;;8.50;5.10;;;;;;;18.32;64.79;99092.38;102544;277;98301;-58
2023/03/31 10:28:02;;;;;;;8.10;4.60;;;;;;;18.63;63.85;99090.52;102586;277;119344;-58
2023/03/31 10:30:43;;;;;;;8.30;5.20;;;;;;;18.80;62.90;99085.86;102508;318;105171;-60
2023/03/31 10:33:23;;;;;;;8.80;4.80;;;;;;;18.82;62.55;99079.52;102539;277;114893;-55
2023/03/31 10:36:01;;;;;;;8.90;4.80;;;;;;;18.99;62.85;99072.22;102509;277;94592;-56
2023/03/31 10:38:45;;;;;;;7.90;5.30;;;;;;;18.98;61.44;99071.71;102555;277;96429;-53
2023/03/31 10:41:30;;;;;;;7.80;4.20;;;;;;;18.70;61.08;99072.73;102593;277;121243;-56
2023/03/31 10:44:06;;;;;;;8.00;4.70;;;;;;;18.61;60.94;99075.91;102549;277;104844;-56
2023/03/31 10:46:57;;;;;;;8.90;4.40;;;;;;;18.51;60.57;99073.89;102510;277;114718;-56
2023/03/31 10:49:43;;;;;;;8.10;4.60;;;;;;;18.60;61.47;99071.38;102505;277;94838;-55
2023/03/31 10:52:26;;;;;;;7.30;4.10;;;;;;;18.82;61.73;99065.45;102556;277;97373;-55
2023/03/31 10:55:14;;;;;;;9.10;4.90;;;;;;;18.97;61.20;99063.07;102190;277;429344;-56
2023/03/31 10:58:02;;;;;;;8.30;4.60;;;;;;;19.14;61.22;99060.75;102468;278;106139;-55
2023/03/31 11:01:01;;;;;;;8.20;4.30;;;;;;;19.35;60.57;99056.97;102540;277;114879;-56
2023/03/31 11:04:08;;;;;;;6.80;3.80;;;;;;;19.24;58.49;99053.98;102520;277;94874;-54
2023/03/31 11:07:05;;;;;;;7.90;4.10;;;;;;;19.13;59.27;99047.22;102562;277;97621;-61
2023/03/31 11:09:57;;;;;;;7.40;4.10;;;;;;;19.14;59.24;99049.03;102556;277;120232;-60
2023/03/31 11:12:42;;;;;;;6.80;3.90;;;;;;;19.10;59.11;99048.55;102567;277;104921;-55
2023/03/31 11:15:30;;;;;;;7.70;3.70;;;;;;;18.82;59.29;99047.88;102489;277;113484;-54
2023/03/31 11:18:20;;;;;;;7.30;4.20;;;;;;;18.71;58.65;99041.06;102531;277;95168;-54
2023/03/31 11:21:11;;;;;;;6.70;4.20;;;;;;;18.58;58.37;99036.09;102529;277;97567;-57
2023/03/31 11:24:09;;;;;;;6.30;3.90;;;;;;;18.32;58.34;99038.41;102580;277;120247;-55
2023/03/31 11:26:59;;;;;;;8.30;4.50;;;;;;;18.40;58.63;99031.95;102595;277;104225;-56
2023/03/31 11:29:50;;;;;;;7.90;4.20;;;;;;;18.52;58.70;99021.48;102594;277;114125;-55
2023/03/31 11:32:47;;;;;;;8.00;4.30;;;;;;;18.46;58.17;99021.52;102563;277;94210;-64
2023/03/31 11:35:53;;;;;;;6.20;4.50;;;;;;;18.45;58.14;99024.46;102623;277;96754;-64
2023/03/31 11:38:56;;;;;;;7.10;4.10;;;;;;;18.27;57.75;99024.02;102601;277;121533;-61
2023/03/31 11:41:42;;;;;;;7.70;4.30;;;;;;;18.36;58.23;99023.42;102589;277;104909;-60
2023/03/31 11:44:30;;;;;;;7.30;4.00;;;;;;;18.36;58.35;99020.30;102585;277;115109;-61
2023/03/31 11:47:14;;;;;;;6.30;4.00;;;;;;;18.40;58.68;99017.79;102557;277;94023;-61
2023/03/31 11:50:00;;;;;;;8.30;4.30;;;;;;;18.39;58.86;99015.83;102601;277;96889;-61
2023/03/31 11:52:41;;;;;;;8.60;4.50;;;;;;;18.49;58.86;99011.80;102627;277;119533;-61
2023/03/31 11:55:20;;;;;;;9.40;4.50;;;;;;;18.49;58.84;99005.50;102614;277;105508;-60
2023/03/31 11:58:02;;;;;;;7.70;4.40;;;;;;;18.47;58.80;99001.02;102549;277;113930;-59
2023/03/31 12:00:49;;;;;;;7.10;4.10;;;;;;;18.67;58.81;98995.05;102560;277;95149;-59
2023/03/31 12:03:44;;;;;;;8.00;4.40;;;;;;;18.79;58.68;98987.14;102561;277;97496;-55
2023/03/31 12:06:23;;;;;;;8.30;4.50;;;;;;;18.84;58.55;98986.03;102564;277;121704;-59
2023/03/31 12:09:19;;;;;;;10.00;4.50;;;;;;;18.90;58.30;98983.35;102565;277;106036;-59
2023/03/31 12:12:05;;;;;;;6.70;3.60;;;;;;;18.85;58.20;98978.82;102513;277;114255;-55
2023/03/31 12:14:50;;;;;;;6.10;3.40;;;;;;;18.80;57.72;98971.22;102552;277;94674;-55
2023/03/31 12:17:30;;;;;;;6.30;3.20;;;;;;;18.76;56.84;98971.17;102596;277;97321;-60
2023/03/31 12:20:23;;;;;;;7.20;3.60;;;;;;;18.80;57.06;98963.22;102579;277;121121;-60
2023/03/31 12:23:13;;;;;;;7.70;3.30;;;;;;;18.86;56.86;98960.91;102566;277;105266;-55
2023/03/31 12:26:01;;;;;;;8.20;3.30;;;;;;;18.76;56.46;98961.27;102526;277;113717;-55
2023/03/31 12:28:39;;;;;;;6.70;3.00;;;;;;;18.61;56.59;98957.80;102555;277;95132;-55
2023/03/31 12:31:23;;;;;;;7.60;3.00;;;;;;;18.72;56.37;98953.73;102543;277;96779;-54
2023/03/31 12:34:04;;;;;;;7.70;3.20;;;;;;;18.70;56.28;98950.55;102512;277;119809;-55
2023/03/31 12:36:57;;;;;;;8.10;4.00;;;;;;;18.81;56.06;98944.62;102553;277;106563;-55